Observations for JERSEY AIRPORT, United Kingdom (EGJJ)

EGJJ 200620Z 04011KT CAVOK 12/08 Q1028  
EGJJ 200550Z 04010KT CAVOK 11/08 Q1028  
EGJJ 200520Z 04008KT CAVOK 11/07 Q1028  
EGJJ 200450Z 06009KT CAVOK 13/07 Q1028  
EGJJ 200420Z AUTO 06010KT 9999 NCD 13/07 Q1028  
EGJJ 200350Z AUTO 05009KT 9999 NCD 12/07 Q1028  
EGJJ 200320Z AUTO 04010KT 9000 HZ NCD 11/08 Q1028   
EGJJ 200250Z AUTO 03009KT 6000 HZ NCD 11/09 Q1028   
EGJJ 200220Z AUTO 03009KT 6000 HZ NCD 11/08 Q1028   
EGJJ 200150Z AUTO 03010KT 8000 HZ NCD 11/08 Q1028   
EGJJ 200120Z AUTO 03010KT 9000 HZ NCD 11/08 Q1028   
EGJJ 200050Z AUTO 04010KT 9000 HZ NCD 12/08 Q1028   
EGJJ 200020Z AUTO 04010KT 9999 NCD 13/07 Q1028  
EGJJ 192350Z AUTO 04010KT 9999 NCD 13/07 Q1028  
EGJJ 192320Z AUTO 05010KT 9999 NCD 14/07 Q1028  
EGJJ 192250Z AUTO 05010KT 9999 NCD 14/07 Q1028  
EGJJ 192220Z AUTO 05011KT 9999 NCD 14/07 Q1028  
EGJJ 192150Z AUTO 06010KT 9999 NCD 14/07 Q1028  
EGJJ 192120Z AUTO 06012KT 9999 NCD 15/07 Q1028  
EGJJ 192050Z AUTO 06011KT 9999 NCD 15/06 Q1028  
EGJJ 192020Z AUTO 06010KT 9999 NCD 15/06 Q1028  
EGJJ 191950Z 06010KT CAVOK 15/07 Q1028  
EGJJ 191920Z 06011KT CAVOK 16/07 Q1028  
EGJJ 191850Z 07009KT CAVOK 16/07 Q1027  
EGJJ 191820Z 06009KT CAVOK 17/08 Q1027  
EGJJ 191750Z 06008KT CAVOK 18/09 Q1027  
EGJJ 191650Z 07012KT CAVOK 19/09 Q1026  
EGJJ 191620Z 07012KT CAVOK 20/09 Q1026  
EGJJ 191550Z 06011KT CAVOK 21/08 Q1026  
EGJJ 191450Z 03009KT CAVOK 21/10 Q1026  
EGJJ 191420Z 04011KT 010V070 CAVOK 22/09 Q1026  
EGJJ 191350Z 02010KT 350V050 CAVOK 21/10 Q1026  
EGJJ 191320Z 04009KT 360V080 CAVOK 22/11 Q1026  
EGJJ 191250Z 05011KT 020V080 CAVOK 22/09 Q1026  
EGJJ 191220Z 06011KT 020V090 9999 FEW009 21/09 Q1025
EGJJ 191150Z 06012KT 030V090 CAVOK 21/08 Q1026  
EGJJ 191120Z 05010KT 020V080 CAVOK 21/09 Q1025  
EGJJ 191050Z 05010KT 010V090 CAVOK 21/09 Q1025  
EGJJ 191020Z 05009KT 010V080 CAVOK 21/09 Q1025  
EGJJ 190950Z 06010KT CAVOK 21/08 Q1025  
EGJJ 190920Z 06009KT CAVOK 20/08 Q1025  
EGJJ 190850Z 05008KT 020V080 CAVOK 19/08 Q1025  
EGJJ 190820Z 06007KT CAVOK 18/09 Q1025  
EGJJ 190720Z 07008KT CAVOK 17/08 Q1024  
EGJJ 190650Z 06008KT CAVOK 16/07 Q1024  
EGJJ 190620Z 07010KT CAVOK 15/07 Q1024